Islip Terrace, NY (11752)

7:44 AM EST on January 27, 2015 (GMT -0500)
Islip | Change Station
CLOSE
Current Station
Personal Weather Station
Location: Islip, NY
Elevation: 26 ft
Nearby Weather Stations

Elev 26 ft 40.74 °N, 73.20 °W | Updated 7 seconds ago

Snow
Snow
22.1 °F
Feels Like 22 °F
N
3.0
Wind Variable Wind from NW
Gusts 0.0 mph

Today
High -- | Low -- °F
--% Chance of Precip.
Yesterday
High -- | Low -- °F
Precip. -- in
7:07 AM 5:03 PM
First Quarter, 54% visible
Pressure 29.57 in
Visibility 0.1 miles
Clouds
Windchill 22 °F
Dew Point 21 °F
Humidity 96%
Rainfall 0.00 in
Snow Depth Not available.
UV Not available.
Pollen .10 out of 12
Air Quality Not available.
Flu Activity Not available.
SPECI KISP 271232Z 35017KT 1/8SM R06/1600V2200FT +SN FZFG VV004 M06/M07 A2957 RMK AO2 PK WND 33026/1210 P0006 T10561072 $

More Conditions Fewer Conditions

Pressure 29.57 in
Visibility 0.1 miles
Clouds
Windchill 22 °F
Dew Point 21 °F
Humidity 96%
Rainfall 0.00 in
Snow Depth Not available.
UV Not available.
Pollen .10 out of 12
Air Quality Not available.
Flu Activity Not available.
SPECI KISP 271232Z 35017KT 1/8SM R06/1600V2200FT +SN FZFG VV004 M06/M07 A2957 RMK AO2 PK WND 33026/1210 P0006 T10561072 $

More Conditions Fewer Conditions

10-Day Weather Forecast

Almanac

Astronomy

Jan. 27, 2015 Rise Set
Actual Time
Civil Twilight
Nautical Twilight
Astronomical Twilight
Moon
Length of Visible Light
Length of Day
Tomorrow will be .
, % of the Moon is Illuminated

Today's Extremes

State Highs State Lows

Community

WunderPhotos

Upload Photos

1,790,591 photos uploaded!

WunderBlogs® & News

Nearby

Air Quality

  Air Quality AQ Index Pollutant
Not available.

Snow Depth

Station Depth Elevation

Earthquake Activity

City Distance Mag. Time & Date
Minimum magnitude displayed is 2.5.

Coastal Water Temperatures

Place Temperature

Nearby Weather Stations